sensor_id;sensor_type;location;lat;lon;timestamp;temperature;humidity
16404;DHT22;8311;50.158;8.642;2023-07-29T00:01:15;21.50;79.00
16404;DHT22;8311;50.158;8.642;2023-07-29T00:04:09;21.60;80.80
16404;DHT22;8311;50.158;8.642;2023-07-29T00:07:03;21.60;81.00
16404;DHT22;8311;50.158;8.642;2023-07-29T00:09:57;21.50;80.30
16404;DHT22;8311;50.158;8.642;2023-07-29T00:12:50;21.50;80.20
16404;DHT22;8311;50.158;8.642;2023-07-29T00:15:43;21.50;79.50
16404;DHT22;8311;50.158;8.642;2023-07-29T00:18:37;21.50;79.20
16404;DHT22;8311;50.158;8.642;2023-07-29T00:21:31;21.50;80.10
16404;DHT22;8311;50.158;8.642;2023-07-29T00:24:25;21.50;81.30
16404;DHT22;8311;50.158;8.642;2023-07-29T00:27:18;21.50;81.70
16404;DHT22;8311;50.158;8.642;2023-07-29T00:30:12;21.50;80.00
16404;DHT22;8311;50.158;8.642;2023-07-29T00:33:05;21.60;80.30
16404;DHT22;8311;50.158;8.642;2023-07-29T00:35:58;21.50;79.90
16404;DHT22;8311;50.158;8.642;2023-07-29T00:38:54;21.50;81.10
16404;DHT22;8311;50.158;8.642;2023-07-29T00:41:49;21.50;79.90
16404;DHT22;8311;50.158;8.642;2023-07-29T00:44:43;21.50;79.60
16404;DHT22;8311;50.158;8.642;2023-07-29T00:47:36;21.50;79.60
16404;DHT22;8311;50.158;8.642;2023-07-29T00:50:31;21.50;80.00
16404;DHT22;8311;50.158;8.642;2023-07-29T00:53:25;21.50;78.90
16404;DHT22;8311;50.158;8.642;2023-07-29T00:56:20;21.50;78.70
16404;DHT22;8311;50.158;8.642;2023-07-29T00:59:13;21.50;78.50
16404;DHT22;8311;50.158;8.642;2023-07-29T01:02:06;21.50;79.60
16404;DHT22;8311;50.158;8.642;2023-07-29T01:05:00;21.50;79.50
16404;DHT22;8311;50.158;8.642;2023-07-29T01:07:59;21.50;80.20
16404;DHT22;8311;50.158;8.642;2023-07-29T01:11:03;21.50;78.50
16404;DHT22;8311;50.158;8.642;2023-07-29T01:14:05;21.50;78.80
16404;DHT22;8311;50.158;8.642;2023-07-29T01:17:03;21.50;78.60
16404;DHT22;8311;50.158;8.642;2023-07-29T01:20:00;21.50;78.40
16404;DHT22;8311;50.158;8.642;2023-07-29T01:22:55;21.50;79.20
16404;DHT22;8311;50.158;8.642;2023-07-29T01:25:50;21.50;79.40
16404;DHT22;8311;50.158;8.642;2023-07-29T01:28:44;21.50;78.80
16404;DHT22;8311;50.158;8.642;2023-07-29T01:31:42;21.50;78.50
16404;DHT22;8311;50.158;8.642;2023-07-29T01:34:42;21.50;77.70
16404;DHT22;8311;50.158;8.642;2023-07-29T01:37:38;21.50;78.60
16404;DHT22;8311;50.158;8.642;2023-07-29T01:40:33;21.50;79.10
16404;DHT22;8311;50.158;8.642;2023-07-29T01:43:28;21.50;78.10
16404;DHT22;8311;50.158;8.642;2023-07-29T01:46:21;21.50;77.70
16404;DHT22;8311;50.158;8.642;2023-07-29T01:49:15;21.50;78.60
16404;DHT22;8311;50.158;8.642;2023-07-29T01:52:08;21.50;78.40
16404;DHT22;8311;50.158;8.642;2023-07-29T01:55:01;21.50;78.80
16404;DHT22;8311;50.158;8.642;2023-07-29T01:57:54;21.50;78.30
16404;DHT22;8311;50.158;8.642;2023-07-29T02:00:48;21.50;80.30
16404;DHT22;8311;50.158;8.642;2023-07-29T02:03:42;21.50;80.40
16404;DHT22;8311;50.158;8.642;2023-07-29T02:06:35;21.60;80.50
16404;DHT22;8311;50.158;8.642;2023-07-29T02:09:29;21.60;80.60
16404;DHT22;8311;50.158;8.642;2023-07-29T02:12:23;21.50;80.30
16404;DHT22;8311;50.158;8.642;2023-07-29T02:15:16;21.60;80.60
16404;DHT22;8311;50.158;8.642;2023-07-29T02:18:11;21.60;80.70
16404;DHT22;8311;50.158;8.642;2023-07-29T02:21:04;21.60;80.90
16404;DHT22;8311;50.158;8.642;2023-07-29T02:23:57;21.60;80.90
16404;DHT22;8311;50.158;8.642;2023-07-29T02:26:50;21.50;80.70
16404;DHT22;8311;50.158;8.642;2023-07-29T02:29:43;21.50;80.70
16404;DHT22;8311;50.158;8.642;2023-07-29T02:32:37;21.60;80.70
16404;DHT22;8311;50.158;8.642;2023-07-29T02:35:33;21.50;80.70
16404;DHT22;8311;50.158;8.642;2023-07-29T02:38:26;21.60;80.40
16404;DHT22;8311;50.158;8.642;2023-07-29T02:41:19;21.50;80.70
16404;DHT22;8311;50.158;8.642;2023-07-29T02:44:12;21.60;80.90
16404;DHT22;8311;50.158;8.642;2023-07-29T02:47:05;21.60;81.10
16404;DHT22;8311;50.158;8.642;2023-07-29T02:49:58;21.60;80.50
16404;DHT22;8311;50.158;8.642;2023-07-29T02:52:52;21.60;80.90
16404;DHT22;8311;50.158;8.642;2023-07-29T02:55:45;21.60;80.90
16404;DHT22;8311;50.158;8.642;2023-07-29T02:58:38;21.50;80.90
16404;DHT22;8311;50.158;8.642;2023-07-29T03:01:31;21.60;81.00
16404;DHT22;8311;50.158;8.642;2023-07-29T03:04:24;21.50;80.30
16404;DHT22;8311;50.158;8.642;2023-07-29T03:07:17;21.50;81.70
16404;DHT22;8311;50.158;8.642;2023-07-29T03:10:12;21.50;81.20
16404;DHT22;8311;50.158;8.642;2023-07-29T03:13:06;21.60;81.30
16404;DHT22;8311;50.158;8.642;2023-07-29T03:16:05;21.60;81.30
16404;DHT22;8311;50.158;8.642;2023-07-29T03:18:58;21.50;81.00
16404;DHT22;8311;50.158;8.642;2023-07-29T03:21:52;21.60;80.70
16404;DHT22;8311;50.158;8.642;2023-07-29T03:24:45;21.50;81.30
16404;DHT22;8311;50.158;8.642;2023-07-29T03:27:40;21.50;81.10
16404;DHT22;8311;50.158;8.642;2023-07-29T03:30:35;21.50;81.20
16404;DHT22;8311;50.158;8.642;2023-07-29T03:33:29;21.60;81.60
16404;DHT22;8311;50.158;8.642;2023-07-29T03:36:22;21.50;81.10
16404;DHT22;8311;50.158;8.642;2023-07-29T03:39:17;21.50;81.60
16404;DHT22;8311;50.158;8.642;2023-07-29T03:42:10;21.50;81.40
16404;DHT22;8311;50.158;8.642;2023-07-29T03:45:06;21.60;81.50
16404;DHT22;8311;50.158;8.642;2023-07-29T03:47:59;21.60;81.70
16404;DHT22;8311;50.158;8.642;2023-07-29T03:50:53;21.60;81.80
16404;DHT22;8311;50.158;8.642;2023-07-29T03:53:47;21.50;81.60
16404;DHT22;8311;50.158;8.642;2023-07-29T03:56:40;21.60;81.90
16404;DHT22;8311;50.158;8.642;2023-07-29T03:59:33;21.60;81.90
16404;DHT22;8311;50.158;8.642;2023-07-29T04:02:28;21.50;81.70
16404;DHT22;8311;50.158;8.642;2023-07-29T04:05:21;21.50;81.50
16404;DHT22;8311;50.158;8.642;2023-07-29T04:08:14;21.60;81.70
16404;DHT22;8311;50.158;8.642;2023-07-29T04:11:07;21.50;81.60
16404;DHT22;8311;50.158;8.642;2023-07-29T04:14:00;21.50;81.30
16404;DHT22;8311;50.158;8.642;2023-07-29T04:16:53;21.50;80.70
16404;DHT22;8311;50.158;8.642;2023-07-29T04:19:48;21.60;81.70
16404;DHT22;8311;50.158;8.642;2023-07-29T04:22:41;21.50;81.90
16404;DHT22;8311;50.158;8.642;2023-07-29T04:25:34;21.50;81.80
16404;DHT22;8311;50.158;8.642;2023-07-29T04:28:27;21.50;81.80
16404;DHT22;8311;50.158;8.642;2023-07-29T04:31:20;21.50;81.80
16404;DHT22;8311;50.158;8.642;2023-07-29T04:34:13;21.50;82.00
16404;DHT22;8311;50.158;8.642;2023-07-29T04:37:08;21.60;81.70
16404;DHT22;8311;50.158;8.642;2023-07-29T04:40:01;21.60;81.90
16404;DHT22;8311;50.158;8.642;2023-07-29T04:42:54;21.50;81.60
16404;DHT22;8311;50.158;8.642;2023-07-29T04:45:47;21.60;81.40
16404;DHT22;8311;50.158;8.642;2023-07-29T04:48:40;21.50;81.40
16404;DHT22;8311;50.158;8.642;2023-07-29T04:51:33;21.50;81.40
16404;DHT22;8311;50.158;8.642;2023-07-29T04:54:28;21.50;80.70
16404;DHT22;8311;50.158;8.642;2023-07-29T04:57:21;21.60;81.60
16404;DHT22;8311;50.158;8.642;2023-07-29T05:00:14;21.60;82.00
16404;DHT22;8311;50.158;8.642;2023-07-29T05:03:07;21.50;81.90
16404;DHT22;8311;50.158;8.642;2023-07-29T05:06:00;21.60;82.10
16404;DHT22;8311;50.158;8.642;2023-07-29T05:08:53;21.50;82.00
16404;DHT22;8311;50.158;8.642;2023-07-29T05:11:48;21.50;82.00
16404;DHT22;8311;50.158;8.642;2023-07-29T05:14:41;21.50;82.00
16404;DHT22;8311;50.158;8.642;2023-07-29T05:17:34;21.50;81.20
16404;DHT22;8311;50.158;8.642;2023-07-29T05:20:27;21.50;81.60
16404;DHT22;8311;50.158;8.642;2023-07-29T05:23:20;21.50;81.50
16404;DHT22;8311;50.158;8.642;2023-07-29T05:26:13;21.50;81.70
16404;DHT22;8311;50.158;8.642;2023-07-29T05:29:08;21.50;81.90
16404;DHT22;8311;50.158;8.642;2023-07-29T05:32:01;21.50;82.00
16404;DHT22;8311;50.158;8.642;2023-07-29T05:34:54;21.50;82.10
16404;DHT22;8311;50.158;8.642;2023-07-29T05:37:48;21.50;81.90
16404;DHT22;8311;50.158;8.642;2023-07-29T05:40:41;21.50;81.80
16404;DHT22;8311;50.158;8.642;2023-07-29T05:43:34;21.50;81.80
16404;DHT22;8311;50.158;8.642;2023-07-29T05:46:29;21.50;82.20
16404;DHT22;8311;50.158;8.642;2023-07-29T05:49:23;21.50;82.90
16404;DHT22;8311;50.158;8.642;2023-07-29T05:52:15;21.50;82.20
16404;DHT22;8311;50.158;8.642;2023-07-29T05:55:08;21.50;82.00
16404;DHT22;8311;50.158;8.642;2023-07-29T05:58:01;21.50;81.90
16404;DHT22;8311;50.158;8.642;2023-07-29T06:00:54;21.50;82.10
16404;DHT22;8311;50.158;8.642;2023-07-29T06:03:48;21.50;83.80
16404;DHT22;8311;50.158;8.642;2023-07-29T06:06:42;21.50;82.30
16404;DHT22;8311;50.158;8.642;2023-07-29T06:09:35;21.50;81.90
16404;DHT22;8311;50.158;8.642;2023-07-29T06:12:29;21.50;82.20
16404;DHT22;8311;50.158;8.642;2023-07-29T06:15:22;21.50;80.90
16404;DHT22;8311;50.158;8.642;2023-07-29T06:18:14;21.50;81.00
16404;DHT22;8311;50.158;8.642;2023-07-29T06:21:09;21.50;82.00
16404;DHT22;8311;50.158;8.642;2023-07-29T06:24:05;21.50;82.20
16404;DHT22;8311;50.158;8.642;2023-07-29T06:27:01;21.50;82.10
16404;DHT22;8311;50.158;8.642;2023-07-29T06:29:55;21.50;81.90
16404;DHT22;8311;50.158;8.642;2023-07-29T06:32:47;21.50;81.80
16404;DHT22;8311;50.158;8.642;2023-07-29T06:35:41;21.50;82.10
16404;DHT22;8311;50.158;8.642;2023-07-29T06:38:36;21.50;82.10
16404;DHT22;8311;50.158;8.642;2023-07-29T06:41:29;21.50;81.20
16404;DHT22;8311;50.158;8.642;2023-07-29T06:44:22;21.50;81.90
16404;DHT22;8311;50.158;8.642;2023-07-29T06:47:15;21.50;80.90
16404;DHT22;8311;50.158;8.642;2023-07-29T06:50:09;21.50;82.00
16404;DHT22;8311;50.158;8.642;2023-07-29T06:53:03;21.50;82.20
16404;DHT22;8311;50.158;8.642;2023-07-29T06:55:58;21.50;82.30
16404;DHT22;8311;50.158;8.642;2023-07-29T06:58:52;21.50;82.30
16404;DHT22;8311;50.158;8.642;2023-07-29T07:01:46;21.50;82.40
16404;DHT22;8311;50.158;8.642;2023-07-29T07:04:39;21.50;82.30
16404;DHT22;8311;50.158;8.642;2023-07-29T07:07:32;21.50;82.40
16404;DHT22;8311;50.158;8.642;2023-07-29T07:10:25;21.50;82.30
16404;DHT22;8311;50.158;8.642;2023-07-29T07:13:19;21.50;82.50
16404;DHT22;8311;50.158;8.642;2023-07-29T07:16:13;21.50;82.50
16404;DHT22;8311;50.158;8.642;2023-07-29T07:19:05;21.50;82.70
16404;DHT22;8311;50.158;8.642;2023-07-29T07:21:59;21.50;81.80
16404;DHT22;8311;50.158;8.642;2023-07-29T07:24:52;21.50;82.40
16404;DHT22;8311;50.158;8.642;2023-07-29T07:27:46;21.50;82.50
16404;DHT22;8311;50.158;8.642;2023-07-29T07:30:42;21.50;82.20
16404;DHT22;8311;50.158;8.642;2023-07-29T07:33:35;21.50;82.40
16404;DHT22;8311;50.158;8.642;2023-07-29T07:36:29;21.50;82.30
16404;DHT22;8311;50.158;8.642;2023-07-29T07:39:21;21.60;82.10
16404;DHT22;8311;50.158;8.642;2023-07-29T07:42:15;21.50;82.60
16404;DHT22;8311;50.158;8.642;2023-07-29T07:45:09;21.60;86.60
16404;DHT22;8311;50.158;8.642;2023-07-29T07:48:04;21.60;86.10
16404;DHT22;8311;50.158;8.642;2023-07-29T07:50:56;21.60;86.60
16404;DHT22;8311;50.158;8.642;2023-07-29T07:53:50;21.60;86.30
16404;DHT22;8311;50.158;8.642;2023-07-29T07:56:43;21.60;85.60
16404;DHT22;8311;50.158;8.642;2023-07-29T07:59:36;21.60;85.60
16404;DHT22;8311;50.158;8.642;2023-07-29T08:02:29;21.60;86.50
16404;DHT22;8311;50.158;8.642;2023-07-29T08:05:24;21.60;86.70
16404;DHT22;8311;50.158;8.642;2023-07-29T08:08:16;21.60;86.60
16404;DHT22;8311;50.158;8.642;2023-07-29T08:11:10;21.60;86.90
16404;DHT22;8311;50.158;8.642;2023-07-29T08:14:03;21.60;87.10
16404;DHT22;8311;50.158;8.642;2023-07-29T08:16:56;21.60;86.90
16404;DHT22;8311;50.158;8.642;2023-07-29T08:19:48;21.60;87.40
16404;DHT22;8311;50.158;8.642;2023-07-29T08:22:43;21.70;87.50
16404;DHT22;8311;50.158;8.642;2023-07-29T08:25:37;21.70;87.60
16404;DHT22;8311;50.158;8.642;2023-07-29T08:28:31;21.70;87.70
16404;DHT22;8311;50.158;8.642;2023-07-29T08:31:25;21.70;87.80
16404;DHT22;8311;50.158;8.642;2023-07-29T08:34:18;21.70;87.30
16404;DHT22;8311;50.158;8.642;2023-07-29T08:37:11;21.70;86.80
16404;DHT22;8311;50.158;8.642;2023-07-29T08:40:07;21.70;85.50
16404;DHT22;8311;50.158;8.642;2023-07-29T08:43:04;21.80;88.00
16404;DHT22;8311;50.158;8.642;2023-07-29T08:45:57;21.80;89.20
16404;DHT22;8311;50.158;8.642;2023-07-29T08:48:51;21.80;88.30
16404;DHT22;8311;50.158;8.642;2023-07-29T08:51:45;21.80;89.60
16404;DHT22;8311;50.158;8.642;2023-07-29T08:54:39;21.80;90.10
16404;DHT22;8311;50.158;8.642;2023-07-29T08:57:34;21.80;90.10
16404;DHT22;8311;50.158;8.642;2023-07-29T09:00:28;21.90;90.40
16404;DHT22;8311;50.158;8.642;2023-07-29T09:03:21;21.90;90.20
16404;DHT22;8311;50.158;8.642;2023-07-29T09:06:15;21.90;90.50
16404;DHT22;8311;50.158;8.642;2023-07-29T09:09:08;22.00;90.70
16404;DHT22;8311;50.158;8.642;2023-07-29T09:12:02;22.00;90.60
16404;DHT22;8311;50.158;8.642;2023-07-29T09:14:57;22.00;90.10
16404;DHT22;8311;50.158;8.642;2023-07-29T09:17:51;22.00;89.60
16404;DHT22;8311;50.158;8.642;2023-07-29T09:20:46;22.20;91.40
16404;DHT22;8311;50.158;8.642;2023-07-29T09:23:40;22.30;90.20
16404;DHT22;8311;50.158;8.642;2023-07-29T09:26:34;22.40;90.40
16404;DHT22;8311;50.158;8.642;2023-07-29T09:29:29;22.40;90.50
16404;DHT22;8311;50.158;8.642;2023-07-29T09:32:25;22.50;90.40
16404;DHT22;8311;50.158;8.642;2023-07-29T09:35:18;22.60;89.80
16404;DHT22;8311;50.158;8.642;2023-07-29T09:38:14;22.60;89.70
16404;DHT22;8311;50.158;8.642;2023-07-29T09:41:11;22.50;88.40
16404;DHT22;8311;50.158;8.642;2023-07-29T09:44:07;22.50;88.20
16404;DHT22;8311;50.158;8.642;2023-07-29T09:47:01;22.40;87.90
16404;DHT22;8311;50.158;8.642;2023-07-29T09:49:55;22.40;87.80
16404;DHT22;8311;50.158;8.642;2023-07-29T09:52:50;22.30;87.60
16404;DHT22;8311;50.158;8.642;2023-07-29T09:55:46;22.30;87.50
16404;DHT22;8311;50.158;8.642;2023-07-29T09:58:40;22.20;87.30
16404;DHT22;8311;50.158;8.642;2023-07-29T10:01:34;22.20;87.30
16404;DHT22;8311;50.158;8.642;2023-07-29T10:04:29;22.20;86.90
16404;DHT22;8311;50.158;8.642;2023-07-29T10:07:24;22.20;86.90
16404;DHT22;8311;50.158;8.642;2023-07-29T10:10:18;22.10;86.90
16404;DHT22;8311;50.158;8.642;2023-07-29T10:13:12;22.10;86.70
16404;DHT22;8311;50.158;8.642;2023-07-29T10:16:05;22.10;86.60
16404;DHT22;8311;50.158;8.642;2023-07-29T10:18:59;22.10;86.70
16404;DHT22;8311;50.158;8.642;2023-07-29T10:21:55;22.10;86.50
16404;DHT22;8311;50.158;8.642;2023-07-29T10:24:51;22.10;86.50
16404;DHT22;8311;50.158;8.642;2023-07-29T10:27:53;22.10;86.20
16404;DHT22;8311;50.158;8.642;2023-07-29T10:30:50;22.10;86.40
16404;DHT22;8311;50.158;8.642;2023-07-29T10:33:44;22.10;86.20
16404;DHT22;8311;50.158;8.642;2023-07-29T10:36:38;22.00;86.10
16404;DHT22;8311;50.158;8.642;2023-07-29T10:39:37;22.00;86.00
16404;DHT22;8311;50.158;8.642;2023-07-29T10:42:33;22.00;86.00
16404;DHT22;8311;50.158;8.642;2023-07-29T10:45:26;22.00;85.90
16404;DHT22;8311;50.158;8.642;2023-07-29T10:48:42;22.00;85.70
16404;DHT22;8311;50.158;8.642;2023-07-29T10:51:36;22.00;85.70
16404;DHT22;8311;50.158;8.642;2023-07-29T10:54:42;22.00;85.60
16404;DHT22;8311;50.158;8.642;2023-07-29T10:57:38;22.00;85.60
16404;DHT22;8311;50.158;8.642;2023-07-29T11:00:32;22.00;85.40
16404;DHT22;8311;50.158;8.642;2023-07-29T11:03:26;22.00;85.30
16404;DHT22;8311;50.158;8.642;2023-07-29T11:06:22;22.00;85.40
16404;DHT22;8311;50.158;8.642;2023-07-29T11:09:39;22.00;85.30
16404;DHT22;8311;50.158;8.642;2023-07-29T11:12:44;22.00;85.30
16404;DHT22;8311;50.158;8.642;2023-07-29T11:15:39;22.00;85.30
16404;DHT22;8311;50.158;8.642;2023-07-29T11:18:33;22.00;85.10
16404;DHT22;8311;50.158;8.642;2023-07-29T11:21:26;22.00;85.10
16404;DHT22;8311;50.158;8.642;2023-07-29T11:24:20;22.00;85.00
16404;DHT22;8311;50.158;8.642;2023-07-29T11:27:14;22.00;85.00
16404;DHT22;8311;50.158;8.642;2023-07-29T11:30:11;22.00;84.90
16404;DHT22;8311;50.158;8.642;2023-07-29T11:33:05;22.00;84.90
16404;DHT22;8311;50.158;8.642;2023-07-29T11:35:59;22.00;84.70
16404;DHT22;8311;50.158;8.642;2023-07-29T11:38:52;22.00;84.80
16404;DHT22;8311;50.158;8.642;2023-07-29T11:41:46;22.00;84.80
16404;DHT22;8311;50.158;8.642;2023-07-29T11:44:38;21.90;84.70
16404;DHT22;8311;50.158;8.642;2023-07-29T11:47:33;22.00;84.70
16404;DHT22;8311;50.158;8.642;2023-07-29T11:50:29;22.00;84.60
16404;DHT22;8311;50.158;8.642;2023-07-29T11:53:22;22.00;84.60
16404;DHT22;8311;50.158;8.642;2023-07-29T11:56:17;22.00;84.60
16404;DHT22;8311;50.158;8.642;2023-07-29T11:59:09;22.00;84.60
16404;DHT22;8311;50.158;8.642;2023-07-29T12:02:07;22.00;84.50
16404;DHT22;8311;50.158;8.642;2023-07-29T12:05:03;22.00;84.50
16404;DHT22;8311;50.158;8.642;2023-07-29T12:07:57;21.90;84.20
16404;DHT22;8311;50.158;8.642;2023-07-29T12:10:51;21.90;84.30
16404;DHT22;8311;50.158;8.642;2023-07-29T12:13:47;22.00;84.20
16404;DHT22;8311;50.158;8.642;2023-07-29T12:16:40;21.90;84.10
16404;DHT22;8311;50.158;8.642;2023-07-29T12:19:34;22.00;84.20
16404;DHT22;8311;50.158;8.642;2023-07-29T12:22:29;22.00;84.10
16404;DHT22;8311;50.158;8.642;2023-07-29T12:25:23;21.90;84.00
16404;DHT22;8311;50.158;8.642;2023-07-29T12:28:16;21.90;84.00
16404;DHT22;8311;50.158;8.642;2023-07-29T12:31:09;22.00;84.00
16404;DHT22;8311;50.158;8.642;2023-07-29T12:34:03;22.00;84.00
16404;DHT22;8311;50.158;8.642;2023-07-29T12:36:57;22.00;84.10
16404;DHT22;8311;50.158;8.642;2023-07-29T12:39:52;21.90;83.90
16404;DHT22;8311;50.158;8.642;2023-07-29T12:42:45;21.90;83.80
16404;DHT22;8311;50.158;8.642;2023-07-29T12:45:38;22.00;83.90
16404;DHT22;8311;50.158;8.642;2023-07-29T12:48:34;22.00;83.80
16404;DHT22;8311;50.158;8.642;2023-07-29T12:51:26;21.90;83.50
16404;DHT22;8311;50.158;8.642;2023-07-29T12:54:20;22.00;83.80
16404;DHT22;8311;50.158;8.642;2023-07-29T12:57:15;22.00;83.60
16404;DHT22;8311;50.158;8.642;2023-07-29T13:00:09;22.00;83.60
16404;DHT22;8311;50.158;8.642;2023-07-29T13:03:02;22.00;83.60
16404;DHT22;8311;50.158;8.642;2023-07-29T13:05:58;22.00;83.50
16404;DHT22;8311;50.158;8.642;2023-07-29T13:08:51;22.00;83.60
16404;DHT22;8311;50.158;8.642;2023-07-29T13:11:45;22.00;83.60
16404;DHT22;8311;50.158;8.642;2023-07-29T13:14:39;22.00;83.50
16404;DHT22;8311;50.158;8.642;2023-07-29T13:17:33;22.00;83.50
16404;DHT22;8311;50.158;8.642;2023-07-29T13:20:26;21.90;83.40
16404;DHT22;8311;50.158;8.642;2023-07-29T13:23:21;22.00;83.60
16404;DHT22;8311;50.158;8.642;2023-07-29T13:26:13;21.90;83.20
16404;DHT22;8311;50.158;8.642;2023-07-29T13:29:07;22.00;83.30
16404;DHT22;8311;50.158;8.642;2023-07-29T13:32:03;22.00;83.40
16404;DHT22;8311;50.158;8.642;2023-07-29T13:34:57;22.00;83.40
16404;DHT22;8311;50.158;8.642;2023-07-29T13:37:51;21.90;83.20
16404;DHT22;8311;50.158;8.642;2023-07-29T13:40:44;22.00;83.20
16404;DHT22;8311;50.158;8.642;2023-07-29T13:43:37;21.90;83.10
16404;DHT22;8311;50.158;8.642;2023-07-29T13:46:29;21.90;83.00
16404;DHT22;8311;50.158;8.642;2023-07-29T13:49:24;21.90;82.90
16404;DHT22;8311;50.158;8.642;2023-07-29T13:52:17;22.00;83.00
16404;DHT22;8311;50.158;8.642;2023-07-29T13:55:11;22.00;83.00
16404;DHT22;8311;50.158;8.642;2023-07-29T13:58:04;22.00;83.00
16404;DHT22;8311;50.158;8.642;2023-07-29T14:00:57;22.00;83.00
16404;DHT22;8311;50.158;8.642;2023-07-29T14:03:51;22.00;82.90
16404;DHT22;8311;50.158;8.642;2023-07-29T14:06:45;22.00;82.90
16404;DHT22;8311;50.158;8.642;2023-07-29T14:09:45;22.00;82.80
16404;DHT22;8311;50.158;8.642;2023-07-29T14:12:38;22.00;82.80
16404;DHT22;8311;50.158;8.642;2023-07-29T14:15:32;22.00;82.80
16404;DHT22;8311;50.158;8.642;2023-07-29T14:18:25;22.00;82.90
16404;DHT22;8311;50.158;8.642;2023-07-29T14:21:18;22.00;82.80
16404;DHT22;8311;50.158;8.642;2023-07-29T14:24:12;22.00;82.80
16404;DHT22;8311;50.158;8.642;2023-07-29T14:27:07;22.00;82.80
16404;DHT22;8311;50.158;8.642;2023-07-29T14:30:00;22.00;82.60
16404;DHT22;8311;50.158;8.642;2023-07-29T14:32:54;22.00;82.70
16404;DHT22;8311;50.158;8.642;2023-07-29T14:35:47;22.00;82.50
16404;DHT22;8311;50.158;8.642;2023-07-29T14:38:40;22.00;82.50
16404;DHT22;8311;50.158;8.642;2023-07-29T14:41:35;22.00;82.60
16404;DHT22;8311;50.158;8.642;2023-07-29T14:44:29;22.00;82.40
16404;DHT22;8311;50.158;8.642;2023-07-29T14:47:22;22.00;82.60
16404;DHT22;8311;50.158;8.642;2023-07-29T14:50:16;22.00;82.40
16404;DHT22;8311;50.158;8.642;2023-07-29T14:53:09;22.00;82.40
16404;DHT22;8311;50.158;8.642;2023-07-29T14:56:02;22.00;82.30
16404;DHT22;8311;50.158;8.642;2023-07-29T14:58:56;22.00;82.40
16404;DHT22;8311;50.158;8.642;2023-07-29T15:01:50;22.00;82.30
16404;DHT22;8311;50.158;8.642;2023-07-29T15:04:43;22.00;82.10
16404;DHT22;8311;50.158;8.642;2023-07-29T15:07:36;22.00;82.20
16404;DHT22;8311;50.158;8.642;2023-07-29T15:10:29;22.00;82.20
16404;DHT22;8311;50.158;8.642;2023-07-29T15:13:23;22.00;82.10
16404;DHT22;8311;50.158;8.642;2023-07-29T15:16:23;22.00;82.00
16404;DHT22;8311;50.158;8.642;2023-07-29T15:19:17;22.00;82.00
16404;DHT22;8311;50.158;8.642;2023-07-29T15:22:10;22.00;81.90
16404;DHT22;8311;50.158;8.642;2023-07-29T15:25:03;22.00;81.90
16404;DHT22;8311;50.158;8.642;2023-07-29T15:27:57;22.00;81.90
16404;DHT22;8311;50.158;8.642;2023-07-29T15:30:52;22.00;81.90
16404;DHT22;8311;50.158;8.642;2023-07-29T15:33:47;22.00;81.80
16404;DHT22;8311;50.158;8.642;2023-07-29T15:36:41;22.10;81.70
16404;DHT22;8311;50.158;8.642;2023-07-29T15:39:34;22.00;81.60
16404;DHT22;8311;50.158;8.642;2023-07-29T15:42:27;22.00;81.60
16404;DHT22;8311;50.158;8.642;2023-07-29T15:45:21;22.00;81.70
16404;DHT22;8311;50.158;8.642;2023-07-29T15:48:16;22.00;81.60
16404;DHT22;8311;50.158;8.642;2023-07-29T15:51:10;22.00;81.50
16404;DHT22;8311;50.158;8.642;2023-07-29T15:54:04;22.00;81.50
16404;DHT22;8311;50.158;8.642;2023-07-29T15:56:57;22.00;81.40
16404;DHT22;8311;50.158;8.642;2023-07-29T15:59:50;22.00;81.40
16404;DHT22;8311;50.158;8.642;2023-07-29T16:02:43;22.00;81.30
16404;DHT22;8311;50.158;8.642;2023-07-29T16:05:37;22.00;81.20
16404;DHT22;8311;50.158;8.642;2023-07-29T16:08:31;22.00;81.20
16404;DHT22;8311;50.158;8.642;2023-07-29T16:11:24;22.00;81.10
16404;DHT22;8311;50.158;8.642;2023-07-29T16:14:20;22.00;81.10
16404;DHT22;8311;50.158;8.642;2023-07-29T16:17:15;22.00;81.10
16404;DHT22;8311;50.158;8.642;2023-07-29T16:20:09;22.10;81.20
16404;DHT22;8311;50.158;8.642;2023-07-29T16:23:02;22.10;81.20
16404;DHT22;8311;50.158;8.642;2023-07-29T16:26:04;22.10;81.20
16404;DHT22;8311;50.158;8.642;2023-07-29T16:28:57;22.10;81.10
16404;DHT22;8311;50.158;8.642;2023-07-29T16:31:51;22.10;81.20
16404;DHT22;8311;50.158;8.642;2023-07-29T16:34:44;22.00;81.00
16404;DHT22;8311;50.158;8.642;2023-07-29T16:37:37;22.00;81.00
16404;DHT22;8311;50.158;8.642;2023-07-29T16:40:30;22.10;81.20
16404;DHT22;8311;50.158;8.642;2023-07-29T16:43:25;22.10;81.00
16404;DHT22;8311;50.158;8.642;2023-07-29T16:46:18;22.10;80.90
16404;DHT22;8311;50.158;8.642;2023-07-29T16:49:11;22.00;80.90
16404;DHT22;8311;50.158;8.642;2023-07-29T16:52:13;22.10;81.00
16404;DHT22;8311;50.158;8.642;2023-07-29T16:55:07;22.10;80.90
16404;DHT22;8311;50.158;8.642;2023-07-29T16:58:00;22.10;80.90
16404;DHT22;8311;50.158;8.642;2023-07-29T17:00:55;22.00;80.90
16404;DHT22;8311;50.158;8.642;2023-07-29T17:03:48;22.00;80.90
16404;DHT22;8311;50.158;8.642;2023-07-29T17:06:42;22.00;80.90
16404;DHT22;8311;50.158;8.642;2023-07-29T17:09:36;22.10;80.90
16404;DHT22;8311;50.158;8.642;2023-07-29T17:12:29;22.10;80.90
16404;DHT22;8311;50.158;8.642;2023-07-29T17:15:22;22.10;80.80
16404;DHT22;8311;50.158;8.642;2023-07-29T17:18:16;22.10;80.80
16404;DHT22;8311;50.158;8.642;2023-07-29T17:21:10;22.10;81.50
16404;DHT22;8311;50.158;8.642;2023-07-29T17:24:03;22.10;80.70
16404;DHT22;8311;50.158;8.642;2023-07-29T17:26:57;22.10;80.80
16404;DHT22;8311;50.158;8.642;2023-07-29T17:29:50;22.10;80.70
16404;DHT22;8311;50.158;8.642;2023-07-29T17:32:43;22.10;80.80
16404;DHT22;8311;50.158;8.642;2023-07-29T17:35:38;22.10;80.80
16404;DHT22;8311;50.158;8.642;2023-07-29T17:38:34;22.10;80.70
16404;DHT22;8311;50.158;8.642;2023-07-29T17:41:27;22.10;80.70
16404;DHT22;8311;50.158;8.642;2023-07-29T17:44:21;22.10;80.80
16404;DHT22;8311;50.158;8.642;2023-07-29T17:47:15;22.10;80.80
16404;DHT22;8311;50.158;8.642;2023-07-29T17:50:10;22.10;80.70
16404;DHT22;8311;50.158;8.642;2023-07-29T17:53:04;22.10;80.60
16404;DHT22;8311;50.158;8.642;2023-07-29T17:55:58;22.10;80.60
16404;DHT22;8311;50.158;8.642;2023-07-29T17:58:51;22.10;80.60
16404;DHT22;8311;50.158;8.642;2023-07-29T18:01:45;22.10;80.50
16404;DHT22;8311;50.158;8.642;2023-07-29T18:04:41;22.10;80.60
16404;DHT22;8311;50.158;8.642;2023-07-29T18:07:35;22.10;80.50
16404;DHT22;8311;50.158;8.642;2023-07-29T18:10:29;22.10;80.50
16404;DHT22;8311;50.158;8.642;2023-07-29T18:13:23;22.10;80.50
16404;DHT22;8311;50.158;8.642;2023-07-29T18:16:17;22.10;80.30
16404;DHT22;8311;50.158;8.642;2023-07-29T18:19:12;22.10;80.40
16404;DHT22;8311;50.158;8.642;2023-07-29T18:22:05;22.10;80.50
16404;DHT22;8311;50.158;8.642;2023-07-29T18:24:59;22.10;80.40
16404;DHT22;8311;50.158;8.642;2023-07-29T18:27:55;22.10;80.50
16404;DHT22;8311;50.158;8.642;2023-07-29T18:30:48;22.10;80.40
16404;DHT22;8311;50.158;8.642;2023-07-29T18:33:41;22.10;80.40
16404;DHT22;8311;50.158;8.642;2023-07-29T18:36:34;22.10;81.00